Time;durP1;ratioP1;P1;durP2;ratioP2;P2;SDS_P1;SDS_P2;PMS_P1;PMS_P2;Temp;Humidity;BMP_temperature;BMP_pressure;BME280_temperature;BME280_humidity;BME280_pressure;Samples;Min_cycle;Max_cycle;Signal;HPM_P1;HPM_P2
2021/07/16 00:00:32;;;;;;;;;;;;;;;25.05;60.27;101239.44;5072434;28;1146;-59
2021/07/16 00:03:08;;;;;;;;;;;;;;;25.02;61.37;101234.34;5089329;28;1332;-59
2021/07/16 00:05:36;;;;;;;;;;;;;;;24.96;61.38;101238.34;5091038;28;1603;-59
2021/07/16 00:08:06;;;;;;;;;;;;;;;24.97;61.12;101236.53;5088916;28;1406;-59
2021/07/16 00:10:36;;;;;;;;;;;;;;;24.96;61.24;101224.16;5070668;28;1979;-59
2021/07/16 00:13:06;;;;;;;;;;;;;;;24.97;61.43;101224.06;5070701;28;1298;-59
2021/07/16 00:15:37;;;;;;;;;;;;;;;24.95;60.45;101217.16;5069001;28;1335;-59
2021/07/16 00:18:10;;;;;;;;;;;;;;;24.97;61.13;101225.88;5070398;28;1268;-59
2021/07/16 00:20:44;;;;;;;;;;;;;;;24.95;61.26;101219.81;5070463;28;880;-59
2021/07/16 00:23:13;;;;;;;;;;;;;;;24.97;60.84;101215.22;5070630;28;1398;-59
2021/07/16 00:25:42;;;;;;;;;;;;;;;24.98;61.17;101215.09;5070478;28;807;-59
2021/07/16 00:28:13;;;;;;;;;;;;;;;24.98;60.40;101217.78;5070425;28;1278;-59
2021/07/16 00:30:41;;;;;;;;;;;;;;;24.95;61.33;101212.66;5069513;28;1910;-59
2021/07/16 00:33:16;;;;;;;;;;;;;;;24.97;60.99;101209.88;5069798;28;1319;-59
2021/07/16 00:35:47;;;;;;;;;;;;;;;24.95;61.36;101217.16;5070384;28;861;-60
2021/07/16 00:38:18;;;;;;;;;;;;;;;24.93;61.77;101211.06;5070209;28;1339;-59
2021/07/16 00:40:47;;;;;;;;;;;;;;;24.91;61.54;101211.19;5070211;28;842;-59
2021/07/16 00:43:14;;;;;;;;;;;;;;;24.92;61.78;101214.72;5070121;28;1712;-59
2021/07/16 00:45:48;;;;;;;;;;;;;;;24.93;61.61;101219.91;5070005;28;796;-59
2021/07/16 00:48:19;;;;;;;;;;;;;;;24.92;61.95;101212.06;5069737;28;1365;-59
2021/07/16 00:50:49;;;;;;;;;;;;;;;24.93;60.64;101208.41;5070154;28;1976;-59
2021/07/16 00:53:17;;;;;;;;;;;;;;;24.94;61.57;101210.09;5070332;28;1431;-59
2021/07/16 00:55:54;;;;;;;;;;;;;;;24.91;61.82;101208.53;5070160;28;890;-59
2021/07/16 00:58:24;;;;;;;;;;;;;;;24.90;62.12;101205.97;5069979;28;1268;-59
2021/07/16 01:00:52;;;;;;;;;;;;;;;24.88;62.00;101207.91;5069821;28;881;-59
2021/07/16 01:03:19;;;;;;;;;;;;;;;24.84;62.22;101206.44;5069700;28;1328;-60
2021/07/16 01:05:53;;;;;;;;;;;;;;;24.87;62.38;101208.88;5068022;28;1598;-59
2021/07/16 01:08:20;;;;;;;;;;;;;;;24.87;62.28;101207.06;5069455;28;1173;-59
2021/07/16 01:10:51;;;;;;;;;;;;;;;24.83;62.32;101196.75;5067872;28;1917;-59
2021/07/16 01:13:21;;;;;;;;;;;;;;;24.86;61.99;101202.72;5069308;28;1327;-60
2021/07/16 01:15:49;;;;;;;;;;;;;;;24.81;62.47;101202.19;5069577;28;949;-59
2021/07/16 01:18:16;;;;;;;;;;;;;;;24.79;62.55;101196.09;5067952;28;1246;-58
2021/07/16 01:20:47;;;;;;;;;;;;;;;24.79;62.14;101200.56;5069443;28;888;-58
2021/07/16 01:23:18;;;;;;;;;;;;;;;24.84;61.93;101203.75;5069160;28;1274;-59
2021/07/16 01:25:49;;;;;;;;;;;;;;;24.84;62.15;101196.63;5069609;28;837;-58
2021/07/16 01:28:17;;;;;;;;;;;;;;;24.86;61.80;101197.38;5067871;28;1196;-59
2021/07/16 01:30:51;;;;;;;;;;;;;;;24.87;60.66;101188.41;5069120;28;1976;-59
2021/07/16 01:33:24;;;;;;;;;;;;;;;24.90;60.48;101192.66;5068907;28;1215;-58
2021/07/16 01:35:51;;;;;;;;;;;;;;;24.89;61.19;101199.81;5069213;28;922;-59
2021/07/16 01:38:23;;;;;;;;;;;;;;;24.86;61.09;101196.53;5067147;28;1326;-60
2021/07/16 01:40:54;;;;;;;;;;;;;;;24.83;61.13;101196.75;5074653;28;1596;-60
2021/07/16 01:43:21;;;;;;;;;;;;;;;24.81;60.65;101193.34;5073804;28;1868;-59
2021/07/16 01:45:51;;;;;;;;;;;;;;;24.84;60.67;101190.44;5068401;28;887;-60
2021/07/16 01:48:22;;;;;;;;;;;;;;;24.84;60.38;101179.78;5068779;28;1371;-59
2021/07/16 01:50:51;;;;;;;;;;;;;;;24.81;60.26;101175.53;5069175;28;1977;-60
2021/07/16 01:53:19;;;;;;;;;;;;;;;24.81;59.77;101172.03;5068822;28;1213;-60
2021/07/16 01:55:47;;;;;;;;;;;;;;;24.81;60.89;101172.03;5068783;28;1254;-60
2021/07/16 01:58:17;;;;;;;;;;;;;;;24.79;61.06;101171.28;5068218;28;1295;-58
2021/07/16 02:00:46;;;;;;;;;;;;;;;24.75;61.01;101170.66;5067144;28;1372;-58
2021/07/16 02:03:19;;;;;;;;;;;;;;;24.76;60.21;101174.16;5068887;28;1252;-59
2021/07/16 02:05:51;;;;;;;;;;;;;;;24.73;61.00;101166.41;5068913;28;853;-60
2021/07/16 02:08:23;;;;;;;;;;;;;;;24.67;61.07;101170.38;5066812;28;1310;-59
2021/07/16 02:10:55;;;;;;;;;;;;;;;24.69;60.39;101164.94;5068812;28;1909;-59
2021/07/16 02:13:23;;;;;;;;;;;;;;;24.69;61.04;101168.44;5068830;28;1220;-60
2021/07/16 02:15:57;;;;;;;;;;;;;;;24.67;60.88;101170.38;5068279;28;849;-59
2021/07/16 02:18:26;;;;;;;;;;;;;;;24.69;61.07;101168.44;5067896;28;1223;-61
2021/07/16 02:20:57;;;;;;;;;;;;;;;24.63;61.06;101165.38;5068040;28;830;-60
2021/07/16 02:23:29;;;;;;;;;;;;;;;24.65;59.10;101166.16;5066671;28;1245;-59
2021/07/16 02:25:58;;;;;;;;;;;;;;;24.71;59.78;101165.69;5067982;28;774;-58
2021/07/16 02:28:31;;;;;;;;;;;;;;;24.70;60.27;101162.16;5068075;28;1295;-60
2021/07/16 02:31:07;;;;;;;;;;;;;;;24.70;59.79;101159.50;5068240;28;1906;-59
2021/07/16 02:33:41;;;;;;;;;;;;;;;24.67;59.77;101159.72;5068081;28;1334;-59
2021/07/16 02:36:12;;;;;;;;;;;;;;;24.67;60.37;101164.19;5068395;28;834;-59
2021/07/16 02:38:39;;;;;;;;;;;;;;;24.61;60.47;101159.34;5067799;28;1223;-59
2021/07/16 02:41:06;;;;;;;;;;;;;;;24.62;60.22;101161.06;5068108;28;1193;-59
2021/07/16 02:43:36;;;;;;;;;;;;;;;24.56;60.56;101157.03;5066153;28;1468;-59
2021/07/16 02:46:03;;;;;;;;;;;;;;;24.57;60.44;101156.06;5068120;28;884;-58
2021/07/16 02:48:31;;;;;;;;;;;;;;;24.58;59.97;101152.44;5068174;28;1347;-59
2021/07/16 02:51:02;;;;;;;;;;;;;;;24.58;60.16;101151.56;5066612;28;1992;-59
2021/07/16 02:53:29;;;;;;;;;;;;;;;24.60;60.23;101152.31;5068241;28;1349;-59
2021/07/16 02:55:56;;;;;;;;;;;;;;;24.61;59.75;101154.88;5066226;28;1525;-59
2021/07/16 02:58:43;;;;;;;;;;;;;;;24.63;59.54;101149.41;5068239;28;1390;-59
2021/07/16 03:01:12;;;;;;;;;;;;;;;24.61;59.44;101143.34;5066651;28;1593;-60
2021/07/16 03:03:52;;;;;;;;;;;;;;;24.61;59.72;101144.22;5067887;28;1358;-59
2021/07/16 03:06:19;;;;;;;;;;;;;;;24.61;58.05;101146.88;5068292;28;842;-59
2021/07/16 03:08:47;;;;;;;;;;;;;;;24.63;58.34;101136.94;5066080;28;1363;-59
2021/07/16 03:11:16;;;;;;;;;;;;;;;24.61;59.93;101140.69;5067582;28;1918;-59
2021/07/16 03:13:45;;;;;;;;;;;;;;;24.56;59.49;101140.19;5067772;28;1256;-59
2021/07/16 03:16:22;;;;;;;;;;;;;;;24.58;59.73;101141.78;5066273;28;2051;-59
2021/07/16 03:18:48;;;;;;;;;;;;;;;24.56;59.97;101137.53;5067140;28;1232;-59
2021/07/16 03:21:19;;;;;;;;;;;;;;;24.51;60.28;101145.00;5067180;28;885;-59
2021/07/16 03:23:51;;;;;;;;;;;;;;;24.53;59.36;101125.28;5067819;28;1304;-59
2021/07/16 03:26:21;;;;;;;;;;;;;;;24.53;60.32;101135.94;5066126;28;1368;-59
2021/07/16 03:28:48;;;;;;;;;;;;;;;24.45;59.27;101131.19;5067431;28;1231;-58
2021/07/16 03:31:23;;;;;;;;;;;;;;;24.45;59.30;101125.88;5067314;28;1963;-59
2021/07/16 03:33:50;;;;;;;;;;;;;;;24.44;60.46;101125.97;5067565;28;1300;-59
2021/07/16 03:36:17;;;;;;;;;;;;;;;24.45;59.88;101133.00;5067241;28;854;-59
2021/07/16 03:38:46;;;;;;;;;;;;;;;24.48;60.18;101138.09;5067341;28;1212;-59
2021/07/16 03:41:14;;;;;;;;;;;;;;;24.38;60.90;101145.06;5067460;28;1560;-59
2021/07/16 03:43:44;;;;;;;;;;;;;;;24.37;60.92;101138.06;5067295;28;1478;-60
2021/07/16 03:46:19;;;;;;;;;;;;;;;24.40;59.50;101137.84;5067399;28;830;-59
2021/07/16 03:48:49;;;;;;;;;;;;;;;24.46;60.41;101140.88;5067664;28;1242;-59
2021/07/16 03:51:16;;;;;;;;;;;;;;;24.45;59.24;101144.50;5065556;28;1910;-57
2021/07/16 03:53:47;;;;;;;;;;;;;;;24.50;59.36;101143.31;5065553;28;1254;-59
2021/07/16 03:56:15;;;;;;;;;;;;;;;24.49;59.57;101147.78;5065784;28;1693;-59
2021/07/16 03:58:46;;;;;;;;;;;;;;;24.45;59.23;101143.66;5067202;28;1307;-58
2021/07/16 04:01:16;;;;;;;;;;;;;;;24.45;59.63;101149.84;5067161;28;900;-58
2021/07/16 04:03:49;;;;;;;;;;;;;;;24.48;59.27;101151.41;5067396;28;1307;-59
2021/07/16 04:06:21;;;;;;;;;;;;;;;24.46;59.29;101156.88;5065602;28;1185;-58
2021/07/16 04:08:50;;;;;;;;;;;;;;;24.47;58.87;101153.22;5069932;28;1221;-59
2021/07/16 04:11:18;;;;;;;;;;;;;;;24.41;59.68;101152.81;5070478;28;1971;-59
2021/07/16 04:13:48;;;;;;;;;;;;;;;24.44;59.97;101156.09;5070673;28;1690;-58
2021/07/16 04:16:22;;;;;;;;;;;;;;;24.38;60.34;101155.72;5070762;28;850;-59
2021/07/16 04:18:50;;;;;;;;;;;;;;;24.38;59.81;101161.88;5070629;28;1217;-59
2021/07/16 04:21:19;;;;;;;;;;;;;;;24.41;58.71;101159.00;5069933;28;833;-59
2021/07/16 04:23:47;;;;;;;;;;;;;;;24.42;59.86;101157.19;5070584;28;1242;-58
2021/07/16 04:26:18;;;;;;;;;;;;;;;24.42;60.01;101166.03;5070436;28;982;-59
2021/07/16 04:28:46;;;;;;;;;;;;;;;24.43;59.81;101162.44;5070313;28;1276;-59
2021/07/16 04:31:16;;;;;;;;;;;;;;;24.45;59.51;101165.81;5070346;28;1902;-58
2021/07/16 04:33:43;;;;;;;;;;;;;;;24.42;60.16;101160.72;5070166;28;1314;-59
2021/07/16 04:36:14;;;;;;;;;;;;;;;24.41;59.34;101164.31;5070080;28;881;-59
2021/07/16 04:38:41;;;;;;;;;;;;;;;24.43;60.11;101167.75;5070293;28;1231;-59
2021/07/16 04:41:11;;;;;;;;;;;;;;;24.34;60.51;101168.44;5070569;28;834;-59
2021/07/16 04:43:38;;;;;;;;;;;;;;;24.33;60.69;101169.38;5068664;28;1934;-60
2021/07/16 04:46:10;;;;;;;;;;;;;;;24.36;60.45;101176.28;5070053;28;900;-59
2021/07/16 04:48:37;;;;;;;;;;;;;;;24.36;60.41;101169.16;5069851;28;1355;-60
2021/07/16 04:51:07;;;;;;;;;;;;;;;24.35;60.04;101164.78;5069083;28;1965;-59
2021/07/16 04:53:37;;;;;;;;;;;;;;;24.36;59.81;101166.50;5069672;28;1302;-59
2021/07/16 04:56:04;;;;;;;;;;;;;;;24.33;60.61;101171.19;5069604;28;869;-59
2021/07/16 04:58:32;;;;;;;;;;;;;;;24.32;60.08;101177.47;5067785;28;1425;-59
2021/07/16 05:00:59;;;;;;;;;;;;;;;24.32;60.66;101180.97;5069489;28;857;-59
2021/07/16 05:03:34;;;;;;;;;;;;;;;24.34;59.43;101173.75;5069564;28;1380;-59
2021/07/16 05:06:03;;;;;;;;;;;;;;;24.40;58.54;101177.78;5069512;28;896;-59
2021/07/16 05:08:33;;;;;;;;;;;;;;;24.40;59.13;101170.63;5069194;28;1277;-59
2021/07/16 05:11:03;;;;;;;;;;;;;;;24.41;58.86;101176.78;5068322;28;1931;-59
2021/07/16 05:13:33;;;;;;;;;;;;;;;24.40;59.84;101178.63;5067585;28;1604;-59
2021/07/16 05:16:00;;;;;;;;;;;;;;;24.40;59.92;101180.44;5069305;28;985;-60
2021/07/16 05:18:33;;;;;;;;;;;;;;;24.33;60.13;101181.84;5067766;28;1442;-60
2021/07/16 05:21:05;;;;;;;;;;;;;;;24.33;60.42;101168.53;5069320;28;857;-59
2021/07/16 05:23:38;;;;;;;;;;;;;;;24.34;59.80;101173.75;5067493;28;1177;-60
2021/07/16 05:26:10;;;;;;;;;;;;;;;24.36;60.47;101187.78;5067806;28;1446;-60
2021/07/16 05:28:37;;;;;;;;;;;;;;;24.32;59.65;101185.44;5068873;28;1555;-60
2021/07/16 05:31:08;;;;;;;;;;;;;;;24.30;60.87;101185.59;5069004;28;1902;-60
2021/07/16 05:33:37;;;;;;;;;;;;;;;24.34;59.74;101188.88;5067263;28;1249;-59
2021/07/16 05:36:04;;;;;;;;;;;;;;;24.34;59.37;101196.84;5069013;28;834;-59
2021/07/16 05:38:39;;;;;;;;;;;;;;;24.33;60.86;101187.16;5067270;28;1353;-59
2021/07/16 05:41:10;;;;;;;;;;;;;;;24.34;60.38;101191.53;5067607;28;869;-60
2021/07/16 05:43:39;;;;;;;;;;;;;;;24.34;59.34;101195.06;5066870;28;1459;-60
2021/07/16 05:46:09;;;;;;;;;;;;;;;24.39;60.42;101195.56;5084785;28;1573;-60
2021/07/16 05:48:45;;;;;;;;;;;;;;;24.33;61.13;101198.66;5087989;28;1419;-60
2021/07/16 05:51:15;;;;;;;;;;;;;;;24.36;60.55;101201.09;5077286;28;1902;-60
2021/07/16 05:54:02;;;;;;;;;;;;;;;24.39;60.65;101197.34;5068882;28;1288;-60
2021/07/16 05:56:48;;;;;;;;;;;;;;;24.39;60.93;101197.34;5088629;28;1271;-60
2021/07/16 05:59:20;;;;;;;;;;;;;;;24.37;61.13;101194.81;5086844;28;1282;-59
2021/07/16 06:01:50;;;;;;;;;;;;;;;24.36;61.33;101198.44;5076283;28;1171;-59
2021/07/16 06:04:17;;;;;;;;;;;;;;;24.35;61.41;101186.09;5068925;28;1169;-60
2021/07/16 06:06:49;;;;;;;;;;;;;;;24.35;61.49;101190.56;5067103;28;1334;-60
2021/07/16 06:09:16;;;;;;;;;;;;;;;24.34;61.28;101189.72;5067999;28;1185;-59
2021/07/16 06:11:50;;;;;;;;;;;;;;;24.37;60.90;101189.50;5084552;28;2636;-60
2021/07/16 06:14:22;;;;;;;;;;;;;;;24.42;60.13;101186.47;5088404;28;1438;-60
2021/07/16 06:16:50;;;;;;;;;;;;;;;24.43;60.53;101181.06;5088516;28;802;-60
2021/07/16 06:19:20;;;;;;;;;;;;;;;24.44;60.83;101196.06;5088860;28;1250;-59
2021/07/16 06:21:55;;;;;;;;;;;;;;;24.41;60.65;101188.28;5088916;28;779;-58
2021/07/16 06:24:34;;;;;;;;;;;;;;;24.42;60.73;101186.47;5087190;28;1438;-59
2021/07/16 06:27:09;;;;;;;;;;;;;;;24.42;60.95;101190.00;5071284;28;1465;-59
2021/07/16 06:29:36;;;;;;;;;;;;;;;24.42;60.98;101186.47;5082691;28;1213;-60
2021/07/16 06:32:05;;;;;;;;;;;;;;;24.41;61.03;101185.63;5068001;28;1914;-58
2021/07/16 06:34:33;;;;;;;;;;;;;;;24.40;61.10;101183.94;5067903;28;1217;-61
2021/07/16 06:37:04;;;;;;;;;;;;;;;24.37;61.35;101181.50;5071454;28;1650;-62
2021/07/16 06:39:34;;;;;;;;;;;;;;;24.36;61.34;101190.44;5092370;28;1299;-61
2021/07/16 06:42:03;;;;;;;;;;;;;;;24.36;61.19;101182.47;5096273;28;1501;-63
2021/07/16 06:44:32;;;;;;;;;;;;;;;24.37;61.22;101189.50;5106957;28;1192;-61
2021/07/16 06:46:59;;;;;;;;;;;;;;;24.40;61.38;101186.63;5088409;28;1207;-57
2021/07/16 06:49:27;;;;;;;;;;;;;;;24.39;60.84;101192.03;5086819;28;1414;-59
2021/07/16 06:51:54;;;;;;;;;;;;;;;24.38;60.33;101198.31;5086251;28;1909;-60
2021/07/16 06:54:26;;;;;;;;;;;;;;;24.36;60.11;101197.59;5091718;28;1374;-58
2021/07/16 06:56:54;;;;;;;;;;;;;;;24.38;59.93;101191.19;5106916;28;808;-58
2021/07/16 06:59:26;;;;;;;;;;;;;;;24.38;60.04;101187.66;5105410;28;1413;-58
2021/07/16 07:01:56;;;;;;;;;;;;;;;24.36;59.70;101190.44;5105562;28;861;-58
2021/07/16 07:04:35;;;;;;;;;;;;;;;24.37;59.54;101183.31;5104639;28;1364;-57
2021/07/16 07:07:05;;;;;;;;;;;;;;;24.37;59.49;101191.31;5086540;28;791;-59
2021/07/16 07:09:35;;;;;;;;;;;;;;;24.40;59.07;101191.94;5086622;28;1389;-59
2021/07/16 07:12:02;;;;;;;;;;;;;;;24.41;59.24;101190.94;5098657;28;1933;-58
2021/07/16 07:14:30;;;;;;;;;;;;;;;24.40;58.81;101194.59;5105004;28;1362;-59
2021/07/16 07:17:02;;;;;;;;;;;;;;;24.40;58.80;101189.28;5107010;28;1028;-59
2021/07/16 07:19:30;;;;;;;;;;;;;;;24.40;58.92;101191.94;5105225;28;1291;-57
2021/07/16 07:22:02;;;;;;;;;;;;;;;24.41;58.57;101185.63;5106590;28;941;-58
2021/07/16 07:24:37;;;;;;;;;;;;;;;24.44;58.80;101192.53;5106183;28;1281;-58
2021/07/16 07:27:04;;;;;;;;;;;;;;;24.47;58.65;101192.31;5106664;28;857;-60
2021/07/16 07:29:36;;;;;;;;;;;;;;;24.53;58.40;101193.69;5102774;28;1407;-61
2021/07/16 07:32:05;;;;;;;;;;;;;;;24.59;58.26;101193.25;5084965;28;1906;-57
2021/07/16 07:34:33;;;;;;;;;;;;;;;24.62;57.81;101195.66;5092248;28;1395;-60
2021/07/16 07:37:11;;;;;;;;;;;;;;;24.64;57.75;101191.06;5102191;28;1181;-57
2021/07/16 07:39:41;;;;;;;;;;;;;;;24.67;57.51;101193.50;5105689;28;1279;-59
2021/07/16 07:42:15;;;;;;;;;;;;;;;24.62;57.19;101193.88;5105943;28;821;-59
2021/07/16 07:44:44;;;;;;;;;;;;;;;24.62;57.05;101187.69;5078478;28;1434;-60
2021/07/16 07:47:11;;;;;;;;;;;;;;;24.64;57.16;101191.94;5075437;28;875;-61
2021/07/16 07:49:41;;;;;;;;;;;;;;;24.63;56.53;101190.22;5067924;28;1347;-62
2021/07/16 07:52:11;;;;;;;;;;;;;;;24.63;56.81;101192.03;5067613;28;1905;-64
2021/07/16 07:54:38;;;;;;;;;;;;;;;24.68;56.16;101187.22;5068197;28;1133;-63
2021/07/16 07:57:04;;;;;;;;;;;;;;;24.73;56.61;101190.38;5095818;28;1535;-61
2021/07/16 07:59:32;;;;;;;;;;;;;;;24.74;56.50;101179.63;5103282;28;1330;-65
2021/07/16 08:02:00;;;;;;;;;;;;;;;24.71;56.70;101181.66;5078047;28;834;-63
2021/07/16 08:04:31;;;;;;;;;;;;;;;24.75;56.64;101178.63;5089138;28;1378;-62
2021/07/16 08:06:58;;;;;;;;;;;;;;;24.77;56.31;101175.88;5108567;28;849;-63
2021/07/16 08:09:30;;;;;;;;;;;;;;;24.77;56.15;101173.22;5110149;27;1572;-63
2021/07/16 08:12:03;;;;;;;;;;;;;;;24.74;55.63;101165.44;5106789;28;1905;-64
2021/07/16 08:14:34;;;;;;;;;;;;;;;24.74;55.96;101165.44;5089928;28;1306;-64
2021/07/16 08:17:02;;;;;;;;;;;;;;;24.75;55.96;101160.00;5090472;28;840;-64
2021/07/16 08:19:34;;;;;;;;;;;;;;;24.74;55.82;101158.31;5089962;28;1398;-63
2021/07/16 08:22:02;;;;;;;;;;;;;;;24.77;55.76;101160.75;5089999;28;847;-62
2021/07/16 08:24:34;;;;;;;;;;;;;;;24.81;55.85;101167.56;5088247;28;1610;-62
2021/07/16 08:27:01;;;;;;;;;;;;;;;24.82;55.45;101168.41;5080875;28;858;-63
2021/07/16 08:29:29;;;;;;;;;;;;;;;24.82;55.44;101163.94;5080354;28;1228;-63
2021/07/16 08:32:05;;;;;;;;;;;;;;;24.79;55.21;101164.13;5108753;28;1975;-64
2021/07/16 08:34:32;;;;;;;;;;;;;;;24.84;55.38;101162.00;5087202;28;1423;-62
2021/07/16 08:37:01;;;;;;;;;;;;;;;24.85;55.24;101152.19;5084005;28;941;-62
2021/07/16 08:39:28;;;;;;;;;;;;;;;24.85;55.71;101157.50;5088279;28;1295;-62
2021/07/16 08:41:56;;;;;;;;;;;;;;;24.85;56.58;101153.03;5089424;28;877;-62
2021/07/16 08:44:29;;;;;;;;;;;;;;;24.90;57.13;101156.19;5089011;28;1474;-63
2021/07/16 08:46:56;;;;;;;;;;;;;;;24.92;57.29;101158.75;5088720;28;1057;-61
2021/07/16 08:49:26;;;;;;;;;;;;;;;24.92;56.85;101150.75;5089056;28;1233;-61
2021/07/16 08:51:57;;;;;;;;;;;;;;;24.95;57.34;101159.38;5089269;28;1901;-61
2021/07/16 08:54:47;;;;;;;;;;;;;;;24.96;57.78;101154.88;5088405;28;1375;-61
2021/07/16 08:57:33;;;;;;;;;;;;;;;25.02;57.83;101150.91;5066993;28;1632;-64
2021/07/16 09:00:12;;;;;;;;;;;;;;;25.04;57.75;101162.28;5066987;28;1316;-65
2021/07/16 09:02:51;;;;;;;;;;;;;;;25.03;57.61;101161.44;5067091;28;830;-64
2021/07/16 09:05:32;;;;;;;;;;;;;;;25.06;57.53;101155.88;5091050;28;1176;-65
2021/07/16 09:07:59;;;;;;;;;;;;;;;25.05;57.73;101151.50;5087394;28;1227;-66
2021/07/16 09:10:30;;;;;;;;;;;;;;;25.05;57.74;101148.81;5088181;28;825;-65
2021/07/16 09:12:59;;;;;;;;;;;;;;;25.07;57.57;101152.25;5087911;28;1972;-68
2021/07/16 09:15:27;;;;;;;;;;;;;;;25.07;57.63;101146.06;5088254;28;963;-67
2021/07/16 09:18:11;;;;;;;;;;;;;;;25.08;57.21;101145.94;5087928;28;1295;-68
2021/07/16 09:21:01;;;;;;;;;;;;;;;25.09;57.62;101144.97;5088008;28;1030;-68
2021/07/16 09:23:46;;;;;;;;;;;;;;;25.09;57.48;101147.63;5088503;28;1310;-67
2021/07/16 09:26:17;;;;;;;;;;;;;;;25.10;57.48;101146.69;5080978;28;1533;-68
2021/07/16 09:28:50;;;;;;;;;;;;;;;25.12;57.73;101152.72;5066264;28;1356;-66
2021/07/16 09:31:23;;;;;;;;;;;;;;;25.14;57.19;101152.63;5066386;28;929;-66
2021/07/16 09:33:56;;;;;;;;;;;;;;;25.13;57.18;101154.44;5067828;28;1980;-65
2021/07/16 09:36:41;;;;;;;;;;;;;;;25.14;57.31;101149.97;5067850;28;909;-64
2021/07/16 09:39:09;;;;;;;;;;;;;;;25.15;57.37;101149.81;5067996;28;1279;-67
2021/07/16 09:41:51;;;;;;;;;;;;;;;25.23;57.25;101147.41;5072877;28;880;-66
2021/07/16 09:44:28;;;;;;;;;;;;;;;25.23;57.18;101147.41;5065432;28;1417;-61
2021/07/16 09:47:16;;;;;;;;;;;;;;;25.27;57.29;101145.34;5072316;28;1916;-63
2021/07/16 09:49:45;;;;;;;;;;;;;;;25.29;56.91;101143.44;5096705;28;1393;-61
2021/07/16 09:52:15;;;;;;;;;;;;;;;25.28;56.60;101139.91;5097503;28;1906;-61
2021/07/16 09:55:01;;;;;;;;;;;;;;;25.28;57.38;101144.38;5107804;28;1228;-61
2021/07/16 09:57:38;;;;;;;;;;;;;;;25.28;56.94;101139.91;5088810;28;1255;-61
2021/07/16 10:00:16;;;;;;;;;;;;;;;25.30;57.22;101143.28;5087550;28;1311;-62
2021/07/16 10:02:49;;;;;;;;;;;;;;;25.33;57.41;101143.06;5094306;28;1367;-59
2021/07/16 10:05:18;;;;;;;;;;;;;;;25.35;56.83;101140.28;5100244;28;1294;-61
2021/07/16 10:07:45;;;;;;;;;;;;;;;25.36;56.91;101145.47;5087250;28;808;-61
2021/07/16 10:10:21;;;;;;;;;;;;;;;25.35;57.06;101138.44;5098164;28;1393;-60
2021/07/16 10:12:49;;;;;;;;;;;;;;;25.36;56.88;101137.47;5105851;28;1988;-59
2021/07/16 10:15:19;;;;;;;;;;;;;;;25.35;56.46;101140.28;5107338;28;1890;-62
2021/07/16 10:17:50;;;;;;;;;;;;;;;25.35;56.18;101140.28;5104503;28;1926;-62
2021/07/16 10:20:20;;;;;;;;;;;;;;;25.35;56.41;101137.63;5106890;28;1338;-63
2021/07/16 10:22:50;;;;;;;;;;;;;;;25.36;55.93;101128.63;5105204;28;841;-63
2021/07/16 10:25:18;;;;;;;;;;;;;;;25.35;56.50;101135.78;5105194;28;1268;-62
2021/07/16 10:27:45;;;;;;;;;;;;;;;25.35;55.89;101138.44;5106796;28;1110;-63
2021/07/16 10:30:17;;;;;;;;;;;;;;;25.35;55.81;101130.44;5108105;28;1244;-63
2021/07/16 10:32:46;;;;;;;;;;;;;;;25.37;55.72;101139.19;5108556;28;1910;-61
2021/07/16 10:35:17;;;;;;;;;;;;;;;25.36;55.47;101137.47;5107258;28;1258;-61
2021/07/16 10:37:45;;;;;;;;;;;;;;;25.37;55.49;101139.19;5108651;28;845;-62
2021/07/16 10:40:49;;;;;;;;;;;;;;;25.38;55.29;101137.38;5108403;28;1358;-61
2021/07/16 10:43:27;;;;;;;;;;;;;;;25.39;54.91;101137.25;5096013;28;1224;-62
2021/07/16 10:46:00;;;;;;;;;;;;;;;25.38;54.92;101135.53;5108360;28;840;-63
2021/07/16 10:48:32;;;;;;;;;;;;;;;25.39;54.99;101137.25;5106847;28;1240;-63
2021/07/16 10:51:01;;;;;;;;;;;;;;;25.39;54.56;101141.72;5108335;28;873;-62
2021/07/16 10:53:27;;;;;;;;;;;;;;;25.39;54.64;101129.25;5108026;28;1956;-63
2021/07/16 10:55:54;;;;;;;;;;;;;;;25.39;54.27;101126.56;5108316;28;861;-64
2021/07/16 10:58:28;;;;;;;;;;;;;;;25.41;54.26;101134.47;5108284;28;1357;-64
2021/07/16 11:00:55;;;;;;;;;;;;;;;25.41;54.46;101123.81;5107333;28;853;-63
2021/07/16 11:03:36;;;;;;;;;;;;;;;25.41;54.33;101127.28;5108353;28;1406;-63
2021/07/16 11:06:03;;;;;;;;;;;;;;;25.40;54.32;101130.94;5108476;28;864;-64
2021/07/16 11:08:42;;;;;;;;;;;;;;;25.43;53.58;101130.72;5106460;28;1298;-62
2021/07/16 11:11:10;;;;;;;;;;;;;;;25.42;54.08;101125.47;5108313;28;833;-62
2021/07/16 11:13:44;;;;;;;;;;;;;;;25.45;53.55;101120.75;5086346;28;1910;-64
2021/07/16 11:16:30;;;;;;;;;;;;;;;25.44;54.21;101124.38;5087629;28;884;-66
2021/07/16 11:19:00;;;;;;;;;;;;;;;25.46;54.48;101126.94;5085055;28;1240;-62
2021/07/16 11:21:42;;;;;;;;;;;;;;;25.45;54.68;101125.25;5095894;28;1227;-63
2021/07/16 11:24:18;;;;;;;;;;;;;;;25.46;53.88;101121.59;5107885;28;1504;-71
2021/07/16 11:26:57;;;;;;;;;;;;;;;25.49;53.63;101124.06;5084344;28;1568;-67
2021/07/16 11:29:32;;;;;;;;;;;;;;;25.48;54.09;101101.88;5078421;28;1566;-69
2021/07/16 11:32:09;;;;;;;;;;;;;;;25.50;53.47;101107.94;5089862;28;837;-67
2021/07/16 11:34:53;;;;;;;;;;;;;;;25.50;53.48;101102.59;5067314;28;1529;-67
2021/07/16 11:37:36;;;;;;;;;;;;;;;25.59;53.07;101105.50;5077916;28;1382;-66
2021/07/16 11:40:04;;;;;;;;;;;;;;;25.61;52.96;101103.56;5068576;28;1310;-65
2021/07/16 11:42:40;;;;;;;;;;;;;;;25.58;52.42;101101.13;5069813;28;903;-66
2021/07/16 11:45:25;;;;;;;;;;;;;;;25.59;51.96;101100.19;5075097;28;1511;-66
2021/07/16 11:48:10;;;;;;;;;;;;;;;25.56;50.91;101101.28;5090547;28;1393;-67
2021/07/16 11:50:39;;;;;;;;;;;;;;;25.57;50.86;101094.09;5090750;28;1281;-66
2021/07/16 11:53:28;;;;;;;;;;;;;;;25.58;49.57;101099.31;5090584;28;1925;-65
2021/07/16 11:55:55;;;;;;;;;;;;;;;25.57;50.93;101091.44;5080224;28;1111;-61
2021/07/16 11:58:26;;;;;;;;;;;;;;;25.58;50.97;101088.66;5071357;28;1271;-63
2021/07/16 12:00:54;;;;;;;;;;;;;;;25.62;50.35;101089.25;5071312;28;878;-63
2021/07/16 12:03:22;;;;;;;;;;;;;;;25.62;50.64;101083.94;5071135;28;1298;-64
2021/07/16 12:05:59;;;;;;;;;;;;;;;25.61;50.71;101092.88;5085453;28;835;-63
2021/07/16 12:08:27;;;;;;;;;;;;;;;25.61;50.45;101093.75;5071189;28;1268;-65
2021/07/16 12:11:08;;;;;;;;;;;;;;;25.67;49.46;101081.72;5071509;28;871;-71
2021/07/16 12:13:36;;;;;;;;;;;;;;;25.67;49.95;101087.06;5071201;28;1914;-71
2021/07/16 12:16:13;;;;;;;;;;;;;;;25.65;49.83;101075.69;5054409;28;1210;-66
2021/07/16 12:18:44;;;;;;;;;;;;;;;25.67;50.69;101077.25;5076055;28;1987;-67
2021/07/16 12:21:15;;;;;;;;;;;;;;;25.65;49.85;101068.53;5097384;28;1707;-65
2021/07/16 12:23:48;;;;;;;;;;;;;;;25.65;50.26;101081.00;5073142;28;1319;-64
2021/07/16 12:26:18;;;;;;;;;;;;;;;25.66;50.08;101080.03;5093975;28;1209;-65
2021/07/16 12:28:48;;;;;;;;;;;;;;;25.69;49.55;101079.78;5090646;28;1224;-66
2021/07/16 12:31:22;;;;;;;;;;;;;;;25.69;50.63;101071.75;5090438;28;841;-69
2021/07/16 12:33:50;;;;;;;;;;;;;;;25.67;50.40;101065.72;5090262;28;1923;-63
2021/07/16 12:36:24;;;;;;;;;;;;;;;25.69;50.89;101064.63;5089698;28;850;-67
2021/07/16 12:38:53;;;;;;;;;;;;;;;25.77;49.55;101066.69;5089373;28;1242;-67
2021/07/16 12:41:23;;;;;;;;;;;;;;;25.78;48.13;101069.19;5088502;28;1488;-68
2021/07/16 12:43:53;;;;;;;;;;;;;;;25.75;49.35;101058.78;5085110;28;1741;-66
2021/07/16 12:46:27;;;;;;;;;;;;;;;25.68;48.78;101056.75;5079204;28;1223;-66
2021/07/16 12:49:07;;;;;;;;;;;;;;;25.77;48.64;101067.53;5079112;28;1329;-70
2021/07/16 12:51:39;;;;;;;;;;;;;;;25.72;49.99;101058.19;5078069;28;1350;-66
2021/07/16 12:54:17;;;;;;;;;;;;;;;25.65;50.14;101049.00;5076423;28;1910;-70
2021/07/16 12:56:45;;;;;;;;;;;;;;;25.63;51.13;101054.44;5101106;28;1849;-67
2021/07/16 12:59:23;;;;;;;;;;;;;;;25.63;50.81;101058.94;5108095;28;1252;-68
2021/07/16 13:01:56;;;;;;;;;;;;;;;25.65;50.46;101051.66;5107955;28;1264;-68
2021/07/16 13:04:35;;;;;;;;;;;;;;;25.66;51.26;101048.00;5071384;28;1780;-73
2021/07/16 13:07:21;;;;;;;;;;;;;;;25.64;50.62;101055.28;5071992;28;1229;-71
2021/07/16 13:09:48;;;;;;;;;;;;;;;25.64;51.80;101056.16;5107079;28;1303;-74
2021/07/16 13:12:18;;;;;;;;;;;;;;;25.64;50.69;101050.81;5089160;28;1304;-71